Time;durP1;ratioP1;P1;durP2;ratioP2;P2;SDS_P1;SDS_P2;PMS_P1;PMS_P2;Temp;Humidity;BMP_temperature;BMP_pressure;BME280_temperature;BME280_humidity;BME280_pressure;Samples;Min_cycle;Max_cycle;Signal;HPM_P1;HPM_P2
2022/07/01 00:00:42;;;;;;;2.35;1.38;;;;;;;18.98;66.49;99641.84;4990771;28;20038;-62
2022/07/01 00:03:08;;;;;;;4.40;1.20;;;;;;;18.96;66.85;99647.34;4990694;28;20387;-61
2022/07/01 00:05:35;;;;;;;2.60;1.23;;;;;;;18.94;66.66;99662.66;4991069;28;20073;-62
2022/07/01 00:08:02;;;;;;;2.58;1.25;;;;;;;18.91;66.57;99668.25;4990760;28;20046;-62
2022/07/01 00:10:29;;;;;;;2.92;1.23;;;;;;;18.88;66.74;99664.06;4990952;28;20046;-62
2022/07/01 00:12:55;;;;;;;2.75;1.30;;;;;;;18.86;66.84;99657.19;4990777;28;20124;-63
2022/07/01 00:15:22;;;;;;;1.35;1.10;;;;;;;18.84;66.73;99652.00;4990950;28;20050;-61
2022/07/01 00:17:49;;;;;;;2.15;1.38;;;;;;;18.83;66.97;99645.00;4973355;28;20113;-63
2022/07/01 00:20:16;;;;;;;2.80;1.40;;;;;;;18.81;66.85;99641.63;4991813;28;20380;-62
2022/07/01 00:22:42;;;;;;;1.50;1.00;;;;;;;18.81;67.24;99646.97;4994695;28;20101;-62
2022/07/01 00:25:09;;;;;;;5.25;1.35;;;;;;;18.80;67.12;99647.94;4994900;28;20046;-62
2022/07/01 00:27:40;;;;;;;3.80;1.40;;;;;;;18.78;66.65;99643.72;4994334;28;20043;-63
2022/07/01 00:30:10;;;;;;;3.83;1.50;;;;;;;18.76;66.88;99635.88;4994136;28;20053;-62
2022/07/01 00:32:37;;;;;;;5.82;1.60;;;;;;;18.76;67.08;99627.88;4994352;28;20533;-62
2022/07/01 00:35:04;;;;;;;2.53;1.30;;;;;;;18.76;66.91;99643.88;4994368;28;20145;-63
2022/07/01 00:37:31;;;;;;;3.22;0.93;;;;;;;18.74;66.99;99630.72;4994081;28;20063;-62
2022/07/01 00:39:58;;;;;;;5.47;1.55;;;;;;;18.73;66.98;99628.19;4994479;28;20097;-63
2022/07/01 00:42:24;;;;;;;3.05;1.45;;;;;;;18.72;67.29;99611.34;4994095;28;20093;-62
2022/07/01 00:44:51;;;;;;;2.95;1.38;;;;;;;18.72;67.09;99643.31;4994125;28;20054;-62
2022/07/01 00:47:17;;;;;;;3.40;1.30;;;;;;;18.71;67.47;99649.66;4994133;28;20042;-63
2022/07/01 00:49:44;;;;;;;3.60;1.38;;;;;;;18.70;67.38;99653.31;4993781;28;20047;-63
2022/07/01 00:52:11;;;;;;;3.75;1.35;;;;;;;18.70;67.60;99644.47;4994152;28;20050;-63
2022/07/01 00:54:37;;;;;;;6.10;1.58;;;;;;;18.70;67.17;99641.78;4993731;28;20057;-63
2022/07/01 00:57:09;;;;;;;5.18;1.60;;;;;;;18.66;67.10;99654.56;4976707;28;20383;-63
2022/07/01 00:59:37;;;;;;;3.58;1.83;;;;;;;18.66;67.02;99651.06;4993451;28;20434;-62
2022/07/01 01:02:07;;;;;;;3.15;1.73;;;;;;;18.61;67.29;99641.66;4976729;28;20049;-62
2022/07/01 01:04:34;;;;;;;2.65;1.50;;;;;;;18.60;67.76;99631.13;4993633;28;20065;-61
2022/07/01 01:07:01;;;;;;;2.65;1.35;;;;;;;18.59;67.52;99630.31;4993686;28;20053;-62
2022/07/01 01:09:30;;;;;;;4.72;1.80;;;;;;;18.57;67.45;99637.59;4993397;28;20359;-64
2022/07/01 01:11:57;;;;;;;3.35;1.35;;;;;;;18.55;67.76;99634.25;4976192;28;20046;-64
2022/07/01 01:14:25;;;;;;;3.53;1.58;;;;;;;18.54;67.83;99640.53;4993503;28;20043;-64
2022/07/01 01:16:53;;;;;;;2.85;1.38;;;;;;;18.53;67.56;99654.84;4993673;28;20054;-62
2022/07/01 01:19:20;;;;;;;3.17;1.48;;;;;;;18.51;67.64;99659.50;4993474;28;20495;-62
2022/07/01 01:21:46;;;;;;;2.58;1.35;;;;;;;18.48;67.67;99644.63;4993559;28;20050;-66
2022/07/01 01:24:13;;;;;;;4.68;1.63;;;;;;;18.47;68.09;99642.13;4993263;28;20050;-62
2022/07/01 01:26:40;;;;;;;3.25;1.52;;;;;;;18.45;67.97;99634.25;4993231;28;20454;-61
2022/07/01 01:29:07;;;;;;;2.95;2.00;;;;;;;18.42;67.74;99628.34;4993388;28;20108;-63
2022/07/01 01:31:33;;;;;;;2.88;1.70;;;;;;;18.41;68.11;99637.34;4993078;28;20073;-62
2022/07/01 01:34:00;;;;;;;3.50;1.75;;;;;;;18.40;67.94;99630.31;4993192;28;20096;-61
2022/07/01 01:36:28;;;;;;;3.78;1.88;;;;;;;18.38;67.82;99622.47;4993040;28;20080;-65
2022/07/01 01:41:39;;;;;;;3.92;1.98;;;;;;;18.35;68.30;99618.25;4993038;28;20069;-64
2022/07/01 01:44:05;;;;;;;2.78;2.22;;;;;;;18.34;68.04;99626.41;4993142;28;20055;-63
2022/07/01 01:46:32;;;;;;;3.03;2.25;;;;;;;18.32;68.08;99618.53;4992828;28;20050;-62
2022/07/01 01:48:59;;;;;;;5.43;2.20;;;;;;;18.31;67.98;99614.19;4992684;28;20050;-61
2022/07/01 01:51:25;;;;;;;3.97;2.45;;;;;;;18.30;68.23;99620.53;4992555;28;20100;-64
2022/07/01 01:53:52;;;;;;;6.47;2.85;;;;;;;18.29;68.05;99624.19;4993007;28;20392;-64
2022/07/01 01:56:19;;;;;;;3.63;2.63;;;;;;;18.29;68.18;99620.66;4992853;28;20050;-65
2022/07/01 01:58:45;;;;;;;5.50;2.22;;;;;;;18.28;68.15;99625.13;4992433;28;20054;-63
2022/07/01 02:01:13;;;;;;;3.75;2.45;;;;;;;18.28;68.22;99632.31;4992358;28;20409;-61
2022/07/01 02:03:42;;;;;;;3.55;2.45;;;;;;;18.26;68.35;99645.75;4975318;28;20053;-63
2022/07/01 02:06:10;;;;;;;3.72;2.72;;;;;;;18.26;68.46;99651.09;4992728;28;20050;-61
2022/07/01 02:08:40;;;;;;;4.90;2.70;;;;;;;18.25;68.42;99657.41;4975229;28;20073;-62
2022/07/01 02:11:08;;;;;;;3.53;3.20;;;;;;;18.28;68.62;99670.44;4992545;28;20046;-62
2022/07/01 02:13:35;;;;;;;3.25;2.90;;;;;;;18.27;68.54;99663.44;4975076;28;20046;-61
2022/07/01 02:16:03;;;;;;;3.92;3.55;;;;;;;18.28;68.97;99666.94;4992419;28;20051;-62
2022/07/01 02:18:30;;;;;;;3.92;3.63;;;;;;;18.28;68.69;99654.44;4974936;28;20426;-61
2022/07/01 02:20:57;;;;;;;6.32;3.70;;;;;;;18.28;68.83;99649.13;4992521;28;20052;-62
2022/07/01 02:23:23;;;;;;;4.47;3.83;;;;;;;18.30;68.95;99647.16;4992466;28;20390;-63
2022/07/01 02:25:50;;;;;;;7.07;3.92;;;;;;;18.29;69.02;99656.16;4992206;28;20092;-62
2022/07/01 02:28:17;;;;;;;7.22;4.28;;;;;;;18.31;69.16;99659.50;4992137;28;20046;-62
2022/07/01 02:30:43;;;;;;;6.45;4.50;;;;;;;18.33;69.07;99664.69;4991938;28;20045;-60
2022/07/01 02:33:10;;;;;;;6.30;4.88;;;;;;;18.32;68.84;99669.16;4991963;28;20050;-63
2022/07/01 02:35:39;;;;;;;9.75;5.35;;;;;;;18.33;68.93;99684.19;4991780;28;20046;-62
2022/07/01 02:38:09;;;;;;;5.47;4.97;;;;;;;18.33;68.78;99699.34;4975112;28;20133;-62
2022/07/01 02:40:39;;;;;;;7.38;5.75;;;;;;;18.32;68.85;99700.31;4992127;28;20096;-62
2022/07/01 02:43:07;;;;;;;6.93;6.25;;;;;;;18.32;68.81;99705.66;4991302;28;20112;-64
2022/07/01 02:45:33;;;;;;;8.68;6.30;;;;;;;18.29;68.48;99701.44;4974591;28;20058;-63
2022/07/01 02:48:01;;;;;;;6.40;5.75;;;;;;;18.29;68.73;99693.44;4991680;28;20545;-62
2022/07/01 02:50:28;;;;;;;10.55;7.20;;;;;;;18.28;68.56;99707.72;4991779;28;20478;-62
2022/07/01 02:52:56;;;;;;;7.20;6.47;;;;;;;18.28;68.77;99722.91;4991828;28;20042;-63
2022/07/01 02:55:23;;;;;;;7.85;6.25;;;;;;;18.27;68.86;99729.22;4991624;28;20468;-62
2022/07/01 02:57:51;;;;;;;8.20;6.40;;;;;;;18.26;69.02;99725.69;4991633;28;20054;-61
2022/07/01 03:00:19;;;;;;;7.43;6.47;;;;;;;18.25;69.16;99734.69;4991352;28;20049;-62
2022/07/01 03:02:47;;;;;;;7.75;6.65;;;;;;;18.27;69.25;99730.03;4991608;28;20051;-61
2022/07/01 03:05:13;;;;;;;8.15;6.35;;;;;;;18.28;69.29;99730.88;4991520;28;20038;-62
2022/07/01 03:07:41;;;;;;;7.60;6.20;;;;;;;18.31;68.96;99743.91;4991274;28;20046;-62
2022/07/01 03:10:09;;;;;;;7.78;6.25;;;;;;;18.31;68.89;99744.75;4991229;28;20046;-62
2022/07/01 03:12:37;;;;;;;7.82;7.03;;;;;;;18.31;68.93;99726.13;4991261;28;20487;-62
2022/07/01 03:15:05;;;;;;;8.27;7.38;;;;;;;18.31;68.55;99739.44;4973849;28;20082;-61
2022/07/01 03:17:33;;;;;;;8.40;7.53;;;;;;;18.30;68.27;99737.75;4991458;28;20042;-62
2022/07/01 03:20:06;;;;;;;8.50;7.32;;;;;;;18.27;68.00;99735.38;4974491;28;20112;-62
2022/07/01 03:22:33;;;;;;;9.50;7.60;;;;;;;18.26;68.53;99730.16;4973998;28;20061;-62
2022/07/01 03:25:02;;;;;;;8.80;8.00;;;;;;;18.24;68.57;99732.97;4991499;28;20069;-61
2022/07/01 03:27:30;;;;;;;8.05;7.10;;;;;;;18.23;68.71;99745.47;4973683;28;20108;-63
2022/07/01 03:29:57;;;;;;;9.60;7.47;;;;;;;18.23;68.52;99753.47;4991378;28;20058;-61
2022/07/01 03:32:24;;;;;;;9.38;8.10;;;;;;;18.23;68.49;99757.94;4991266;28;20475;-62
2022/07/01 03:34:52;;;;;;;8.73;7.75;;;;;;;18.23;68.14;99763.25;4990962;28;20478;-61
2022/07/01 03:37:19;;;;;;;10.80;7.75;;;;;;;18.23;68.24;99764.13;4973966;28;20057;-61
2022/07/01 03:39:47;;;;;;;9.02;7.53;;;;;;;18.22;68.28;99770.44;4990855;28;20378;-62
2022/07/01 03:42:14;;;;;;;9.15;8.18;;;;;;;18.21;68.50;99775.91;4990888;28;20478;-66
2022/07/01 03:44:40;;;;;;;9.02;7.55;;;;;;;18.22;68.43;99782.91;4991229;28;20046;-61
2022/07/01 03:47:07;;;;;;;9.63;8.68;;;;;;;18.22;68.40;99777.56;4990967;28;20538;-62
2022/07/01 03:49:35;;;;;;;10.50;9.13;;;;;;;18.20;68.19;99787.50;4990773;28;20047;-62
2022/07/01 03:52:05;;;;;;;11.57;9.80;;;;;;;18.18;67.66;99792.13;4991101;28;20105;-61
2022/07/01 03:54:38;;;;;;;13.02;9.45;;;;;;;18.18;68.40;99782.34;4990881;28;20369;-63
2022/07/01 03:57:09;;;;;;;11.68;10.48;;;;;;;18.19;68.25;99793.81;4994885;28;20086;-61
2022/07/01 03:59:37;;;;;;;12.23;10.90;;;;;;;18.18;68.02;99794.81;4994725;28;20042;-61
2022/07/01 04:02:05;;;;;;;12.55;10.63;;;;;;;18.18;68.30;99794.81;4994799;28;20279;-63
2022/07/01 04:04:33;;;;;;;13.55;12.15;;;;;;;18.18;68.19;99797.47;4994566;28;20542;-61
2022/07/01 04:07:02;;;;;;;12.38;11.18;;;;;;;18.16;68.38;99802.94;4994637;28;20112;-61
2022/07/01 04:09:30;;;;;;;13.45;12.15;;;;;;;18.14;68.33;99802.22;4994508;28;20054;-62
2022/07/01 04:11:57;;;;;;;12.65;11.35;;;;;;;18.15;68.37;99803.91;4994827;28;20049;-62
2022/07/01 04:14:24;;;;;;;13.48;12.18;;;;;;;18.14;68.58;99806.72;4994582;28;20054;-61
2022/07/01 04:16:51;;;;;;;14.27;12.88;;;;;;;18.13;68.56;99799.69;4994808;28;20054;-61
2022/07/01 04:19:19;;;;;;;13.85;12.52;;;;;;;18.12;68.44;99803.34;4994385;28;20469;-64
2022/07/01 04:24:32;;;;;;;14.75;13.20;;;;;;;18.10;68.61;99819.47;4994688;28;20054;-63
2022/07/01 04:27:00;;;;;;;14.63;13.05;;;;;;;18.08;68.37;99811.59;4994700;28;20081;-63
2022/07/01 04:29:29;;;;;;;14.23;12.82;;;;;;;18.08;68.34;99816.06;4994062;28;20042;-64
2022/07/01 04:31:57;;;;;;;14.02;12.35;;;;;;;18.08;68.44;99818.75;4994272;28;20082;-61
2022/07/01 04:34:24;;;;;;;14.93;13.43;;;;;;;18.06;68.16;99818.84;4994484;28;20053;-61
2022/07/01 04:36:51;;;;;;;15.57;13.95;;;;;;;18.05;68.60;99814.50;4994387;28;20050;-62
2022/07/01 04:39:18;;;;;;;15.95;13.20;;;;;;;18.05;68.95;99811.00;4994142;28;20120;-61
2022/07/01 04:42:00;;;;;;;15.23;12.80;;;;;;;18.07;69.03;99814.38;4994034;28;20054;-63
2022/07/01 04:44:34;;;;;;;14.73;13.23;;;;;;;18.09;68.73;99821.28;4994154;28;20115;-62
2022/07/01 04:47:08;;;;;;;16.15;14.55;;;;;;;18.15;68.74;99827.03;4994398;28;20085;-62
2022/07/01 04:49:35;;;;;;;15.32;13.57;;;;;;;18.17;68.54;99838.41;4993821;28;20475;-61
2022/07/01 04:52:01;;;;;;;15.48;13.98;;;;;;;18.18;68.50;99832.97;4993895;28;20050;-62
2022/07/01 04:54:28;;;;;;;15.75;14.10;;;;;;;18.19;68.48;99818.66;4994034;28;20042;-62
2022/07/01 04:56:54;;;;;;;15.48;13.98;;;;;;;18.21;68.47;99829.19;4993694;28;20109;-61
2022/07/01 04:59:21;;;;;;;16.05;13.82;;;;;;;18.22;68.48;99826.38;4993626;28;20073;-65
2022/07/01 05:01:50;;;;;;;16.95;15.43;;;;;;;18.25;68.82;99817.28;4993708;28;20050;-62
2022/07/01 05:04:18;;;;;;;17.23;15.63;;;;;;;18.27;68.75;99819.81;4993790;28;20050;-73
2022/07/01 05:06:45;;;;;;;17.90;15.15;;;;;;;18.28;68.50;99819.63;4992950;28;20089;-61
2022/07/01 05:09:12;;;;;;;17.13;15.32;;;;;;;18.29;68.61;99816.03;4993440;28;20463;-62
2022/07/01 05:11:40;;;;;;;18.05;16.15;;;;;;;18.32;68.57;99825.56;4960173;28;20045;-62
2022/07/01 05:14:07;;;;;;;17.83;15.95;;;;;;;18.32;68.23;99814.91;4976318;28;20054;-61
2022/07/01 05:16:34;;;;;;;17.38;15.52;;;;;;;18.31;68.01;99807.88;4993338;28;20055;-65
2022/07/01 05:22:00;;;;;;;17.80;16.00;;;;;;;18.29;68.24;99805.34;4993405;28;20147;-62
2022/07/01 05:24:30;;;;;;;18.02;15.95;;;;;;;18.29;67.93;99805.34;4993233;28;20042;-61
2022/07/01 05:26:58;;;;;;;19.92;16.50;;;;;;;18.31;67.97;99806.06;4976067;28;20096;-61
2022/07/01 05:29:25;;;;;;;20.50;17.45;;;;;;;18.29;68.00;99813.34;4993060;28;20057;-61
2022/07/01 05:31:51;;;;;;;18.85;16.17;;;;;;;18.29;68.35;99818.69;4993175;28;20073;-64
2022/07/01 05:34:18;;;;;;;17.95;16.15;;;;;;;18.29;68.14;99821.34;4993083;28;20091;-63
2022/07/01 05:36:45;;;;;;;18.40;16.55;;;;;;;18.28;68.27;99811.66;4992833;28;20042;-61
2022/07/01 05:39:11;;;;;;;19.00;17.00;;;;;;;18.27;68.00;99823.28;4992789;28;20121;-61
2022/07/01 05:41:38;;;;;;;19.60;17.27;;;;;;;18.26;68.21;99820.75;4993007;28;20129;-65
2022/07/01 05:44:05;;;;;;;20.17;17.90;;;;;;;18.25;68.33;99825.25;4992851;28;20057;-63
2022/07/01 05:46:31;;;;;;;20.85;18.05;;;;;;;18.23;68.22;99813.88;4992843;28;20390;-61
2022/07/01 05:48:58;;;;;;;20.35;18.17;;;;;;;18.23;68.47;99805.88;4992552;28;20076;-64
2022/07/01 05:51:25;;;;;;;23.10;19.73;;;;;;;18.23;67.94;99827.19;4992973;28;20434;-61
2022/07/01 05:53:52;;;;;;;25.23;19.48;;;;;;;18.21;68.06;99827.34;4992917;28;20394;-62
2022/07/01 05:56:20;;;;;;;21.75;18.50;;;;;;;18.21;68.68;99835.31;4992971;28;20046;-62
2022/07/01 05:58:46;;;;;;;22.95;19.75;;;;;;;18.23;68.17;99840.53;4992627;28;20433;-61
2022/07/01 06:01:14;;;;;;;22.42;19.20;;;;;;;18.23;68.25;99840.53;4992703;28;20065;-62
2022/07/01 06:03:40;;;;;;;23.73;20.02;;;;;;;18.23;68.02;99832.53;4975187;28;20050;-61
2022/07/01 06:06:07;;;;;;;22.95;20.48;;;;;;;18.24;67.99;99836.88;4992804;28;20042;-62
2022/07/01 06:08:34;;;;;;;22.75;20.30;;;;;;;18.25;67.76;99829.72;4992061;28;20054;-61
2022/07/01 06:11:00;;;;;;;22.75;20.35;;;;;;;18.26;68.03;99831.41;4984588;28;20409;-62
2022/07/01 06:13:28;;;;;;;22.60;20.20;;;;;;;18.27;68.49;99833.94;4992414;28;20057;-62
2022/07/01 06:15:58;;;;;;;22.95;20.45;;;;;;;18.29;68.22;99831.16;4992515;28;20145;-62
2022/07/01 06:18:25;;;;;;;22.73;19.52;;;;;;;18.32;68.34;99826.38;4974154;28;20096;-64
2022/07/01 06:20:52;;;;;;;23.30;19.15;;;;;;;18.36;68.21;99824.31;4992342;28;20061;-61
2022/07/01 06:23:19;;;;;;;26.08;20.60;;;;;;;18.40;68.25;99827.53;4992280;28;20046;-61
2022/07/01 06:25:45;;;;;;;23.80;20.33;;;;;;;18.44;68.15;99828.94;4992200;28;20051;-62
2022/07/01 06:28:12;;;;;;;22.10;19.48;;;;;;;18.47;68.07;99826.00;4991890;28;20046;-61
2022/07/01 06:30:43;;;;;;;22.92;19.75;;;;;;;18.51;68.12;99827.44;4992025;28;20438;-61
2022/07/01 06:33:11;;;;;;;22.58;19.73;;;;;;;18.54;67.80;99824.47;4975003;28;20086;-61
2022/07/01 06:35:39;;;;;;;21.52;18.85;;;;;;;18.57;68.08;99828.69;4992233;28;20054;-61
2022/07/01 06:38:05;;;;;;;22.52;20.10;;;;;;;18.59;68.03;99838.25;4974317;28;20050;-63
2022/07/01 06:40:32;;;;;;;25.48;20.52;;;;;;;18.64;67.63;99840.47;4992074;28;20434;-61
2022/07/01 06:42:59;;;;;;;26.23;20.92;;;;;;;18.68;67.80;99836.56;4991932;28;20048;-60
2022/07/01 06:45:25;;;;;;;24.25;20.92;;;;;;;18.72;67.42;99831.78;4991749;28;20042;-63
2022/07/01 06:47:52;;;;;;;23.48;19.48;;;;;;;18.77;67.65;99844.72;4991908;28;20042;-62
2022/07/01 06:50:19;;;;;;;21.70;19.13;;;;;;;18.83;67.60;99854.81;4991699;28;20050;-62
2022/07/01 06:52:45;;;;;;;21.52;18.13;;;;;;;18.86;67.20;99859.88;4992046;28;20038;-61
2022/07/01 06:55:12;;;;;;;21.88;18.92;;;;;;;18.89;66.96;99865.75;4991705;28;20763;-63
2022/07/01 06:57:38;;;;;;;21.88;18.83;;;;;;;18.92;67.28;99862.00;4991529;28;20547;-61
2022/07/01 07:00:06;;;;;;;21.55;17.92;;;;;;;18.94;66.90;99869.84;4991214;28;20505;-61
2022/07/01 07:02:32;;;;;;;19.30;17.27;;;;;;;18.97;66.87;99872.22;4991814;28;20046;-63
2022/07/01 07:04:59;;;;;;;18.75;16.75;;;;;;;19.00;66.79;99877.31;4974297;28;20046;-62
2022/07/01 07:07:28;;;;;;;18.90;16.02;;;;;;;19.03;66.59;99871.69;4991600;28;20054;-63
2022/07/01 07:09:55;;;;;;;18.20;16.20;;;;;;;19.07;66.68;99873.13;4991144;28;20054;-62
2022/07/01 07:12:24;;;;;;;18.05;15.93;;;;;;;19.11;66.89;99877.19;4991375;28;20112;-61
2022/07/01 07:14:51;;;;;;;17.70;15.18;;;;;;;19.17;66.77;99886.44;4991427;28;20050;-61
2022/07/01 07:17:17;;;;;;;16.10;14.32;;;;;;;19.23;66.36;99879.72;4991266;28;20061;-60
2022/07/01 07:19:44;;;;;;;17.75;14.57;;;;;;;19.26;66.36;99882.94;4991081;28;20058;-61
2022/07/01 07:22:10;;;;;;;15.60;14.00;;;;;;;19.31;66.55;99895.88;4991303;28;20046;-63
2022/07/01 07:24:37;;;;;;;16.67;14.40;;;;;;;19.36;66.33;99908.81;4974026;28;20046;-61
2022/07/01 07:27:04;;;;;;;16.27;14.23;;;;;;;19.38;65.82;99907.66;4991238;28;20097;-63
2022/07/01 07:29:31;;;;;;;14.70;13.18;;;;;;;19.41;65.39;99901.22;4990875;28;20054;-62
2022/07/01 07:31:58;;;;;;;12.98;11.60;;;;;;;19.43;64.99;99914.41;4991298;28;20054;-61
2022/07/01 07:34:24;;;;;;;13.93;11.60;;;;;;;19.42;64.33;99912.69;4991402;28;20046;-63
2022/07/01 07:36:51;;;;;;;13.15;11.43;;;;;;;19.40;64.22;99920.88;4991039;28;20051;-61
2022/07/01 07:39:18;;;;;;;15.18;12.05;;;;;;;19.36;64.46;99924.81;4990897;28;20075;-62
2022/07/01 07:41:45;;;;;;;14.38;11.77;;;;;;;19.32;64.42;99932.25;4990950;28;20537;-63
2022/07/01 07:44:11;;;;;;;14.55;12.50;;;;;;;19.28;64.19;99933.50;4991098;28;20057;-62
2022/07/01 07:46:38;;;;;;;12.98;11.55;;;;;;;19.25;64.27;99925.78;4991234;28;20092;-60
2022/07/01 07:49:04;;;;;;;13.25;11.95;;;;;;;19.22;63.84;99931.41;4990808;28;20498;-61
2022/07/01 07:51:31;;;;;;;12.93;11.57;;;;;;;19.17;64.40;99923.81;4990957;28;20050;-62
2022/07/01 07:53:58;;;;;;;14.98;12.32;;;;;;;19.16;64.56;99913.28;4990981;28;20471;-61
2022/07/01 07:56:24;;;;;;;13.05;11.63;;;;;;;19.12;64.55;99912.72;4990918;28;20050;-61
2022/07/01 07:58:51;;;;;;;14.95;11.82;;;;;;;19.12;64.69;99921.56;4991134;28;20062;-62
2022/07/01 08:01:17;;;;;;;13.80;12.20;;;;;;;19.13;64.63;99920.59;4990755;28;20050;-62
2022/07/01 08:03:45;;;;;;;14.50;11.65;;;;;;;19.14;64.41;99916.94;4991242;28;20054;-62
2022/07/01 08:06:12;;;;;;;14.70;11.63;;;;;;;19.16;64.45;99929.28;4990926;28;20135;-61
2022/07/01 08:08:39;;;;;;;14.20;10.93;;;;;;;19.15;64.36;99928.44;4990668;28;20386;-61
2022/07/01 08:11:06;;;;;;;13.80;12.02;;;;;;;19.18;64.57;99932.66;4991107;28;20060;-62
2022/07/01 08:13:32;;;;;;;12.88;11.63;;;;;;;19.20;64.51;99923.53;4991143;28;20042;-62
2022/07/01 08:15:59;;;;;;;14.10;12.70;;;;;;;19.24;64.80;99918.75;4990984;28;20426;-71
2022/07/01 08:18:26;;;;;;;14.32;11.85;;;;;;;19.30;64.75;99920.88;4973484;28;20054;-61
2022/07/01 08:20:52;;;;;;;13.25;11.90;;;;;;;19.38;64.84;99917.50;4990802;28;20553;-69
2022/07/01 08:23:20;;;;;;;13.35;11.93;;;;;;;19.47;64.32;99913.16;4990673;28;20074;-62
2022/07/01 08:25:48;;;;;;;18.80;12.02;;;;;;;19.55;64.43;99921.25;4991024;28;20042;-62
2022/07/01 08:28:16;;;;;;;12.40;11.10;;;;;;;19.62;64.42;99903.69;4990425;28;20046;-70
2022/07/01 08:30:42;;;;;;;14.27;10.70;;;;;;;19.72;64.23;99921.53;4990915;28;20046;-75
2022/07/01 08:33:10;;;;;;;12.68;10.88;;;;;;;19.80;63.88;99932.34;4990732;28;20046;-74
2022/07/01 08:35:37;;;;;;;12.18;9.77;;;;;;;19.89;64.33;99949.34;4990579;28;20050;-71
2022/07/01 08:38:04;;;;;;;10.90;9.75;;;;;;;19.98;64.08;99939.59;4990438;28;20129;-70
2022/07/01 08:40:31;;;;;;;9.65;8.65;;;;;;;20.06;63.76;99939.75;4991172;28;20042;-65
2022/07/01 08:43:05;;;;;;;10.18;8.75;;;;;;;20.13;61.04;99938.19;4994215;28;20406;-65
2022/07/01 08:45:33;;;;;;;9.43;7.90;;;;;;;20.23;62.20;99943.53;4994203;28;20049;-62
2022/07/01 08:48:00;;;;;;;9.40;7.55;;;;;;;20.26;62.27;99947.72;4968663;28;20057;-65
2022/07/01 08:50:40;;;;;;;11.60;7.50;;;;;;;20.29;60.08;99936.72;4993718;28;20054;-63
2022/07/01 08:53:09;;;;;;;9.23;7.38;;;;;;;20.35;61.25;99938.81;4994124;28;20104;-67
2022/07/01 08:56:40;;;;;;;8.60;7.53;;;;;;;20.41;61.88;99950.78;4976743;28;20178;-64
2022/07/01 08:58:27;;;;;;;12.27;7.30;;;;;;;20.47;60.71;99960.88;4993685;28;20053;-66
2022/07/01 09:01:24;;;;;;;8.13;7.35;;;;;;;20.52;60.31;99973.81;4976418;28;20050;-62
2022/07/01 09:03:54;;;;;;;8.23;7.43;;;;;;;20.66;62.79;99977.81;4993878;28;20073;-63
2022/07/01 09:06:26;;;;;;;8.30;7.50;;;;;;;20.75;61.26;99986.78;4976555;28;20060;-64
2022/07/01 09:08:52;;;;;;;10.15;7.47;;;;;;;20.83;61.39;100000.25;4976110;28;20069;-63
2022/07/01 09:11:20;;;;;;;9.88;6.78;;;;;;;20.90;60.16;99998.69;4993488;28;20046;-68
2022/07/01 09:14:06;;;;;;;7.70;5.82;;;;;;;20.91;59.35;100005.75;4993656;28;20054;-71
2022/07/01 09:16:41;;;;;;;7.07;5.88;;;;;;;20.96;58.47;100003.47;4960435;28;20057;-66
2022/07/01 09:19:09;;;;;;;8.32;5.63;;;;;;;21.03;60.19;100000.16;4993217;28;20046;-64
2022/07/01 09:21:35;;;;;;;6.60;5.15;;;;;;;21.04;59.78;100005.38;4976067;28;20058;-70
2022/07/01 09:24:04;;;;;;;7.05;5.10;;;;;;;21.06;58.86;100006.09;4993641;28;20059;-65
2022/07/01 09:26:31;;;;;;;8.25;4.63;;;;;;;21.08;58.71;100012.13;4993373;28;20054;-64
2022/07/01 09:28:59;;;;;;;6.53;3.95;;;;;;;21.10;nan;100009.28;4993197;28;20427;-64
2022/07/01 09:31:33;;;;;;;14.18;4.57;;;;;;;21.08;57.34;100013.94;4993283;28;20120;-64
2022/07/01 09:34:04;;;;;;;6.53;4.20;;;;;;;21.12;58.20;100009.16;4975672;28;20085;-64
2022/07/01 09:36:32;;;;;;;7.05;3.78;;;;;;;21.19;59.76;100004.84;4975761;28;20043;-65
2022/07/01 09:39:03;;;;;;;6.05;4.13;;;;;;;21.25;57.89;99993.56;4993179;28;20046;-65
2022/07/01 09:41:54;;;;;;;5.13;4.00;;;;;;;21.39;60.04;99992.19;4979051;28;20054;-63
2022/07/01 09:44:21;;;;;;;4.57;3.42;;;;;;;21.56;60.01;99992.31;4993016;28;20050;-68
2022/07/01 09:46:55;;;;;;;5.70;3.65;;;;;;;21.70;57.22;99999.84;4992896;28;20042;-69
2022/07/01 09:49:23;;;;;;;5.75;3.40;;;;;;;21.89;59.04;100003.34;4975509;28;20125;-65
2022/07/01 09:51:51;;;;;;;3.75;2.92;;;;;;;22.03;59.00;100015.38;4975829;28;20050;-68
2022/07/01 09:54:18;;;;;;;5.03;2.92;;;;;;;22.17;58.56;100013.09;4992854;28;20426;-66
2022/07/01 09:56:45;;;;;;;4.95;3.45;;;;;;;22.28;58.81;100010.19;4992930;28;20105;-69
2022/07/01 09:59:16;;;;;;;4.00;3.03;;;;;;;22.40;57.82;100000.00;4992957;28;20054;-69
2022/07/01 10:01:44;;;;;;;3.80;2.38;;;;;;;22.53;56.82;99994.19;4992852;28;20402;-69
2022/07/01 10:04:13;;;;;;;4.90;2.97;;;;;;;22.60;56.33;99994.44;4992756;28;20050;-66
2022/07/01 10:07:01;;;;;;;4.32;3.05;;;;;;;22.63;54.07;100005.69;4992640;28;20054;-66
2022/07/01 10:10:04;;;;;;;4.55;3.10;;;;;;;22.68;51.35;100023.97;4975152;28;20054;-69
2022/07/01 10:12:36;;;;;;;5.40;2.95;;;;;;;22.74;54.64;100019.81;4947399;28;20046;-75
2022/07/01 10:15:06;;;;;;;4.20;2.90;;;;;;;22.72;54.02;100003.88;4975256;28;20414;-76
2022/07/01 10:17:42;;;;;;;5.55;3.60;;;;;;;22.67;53.29;99994.63;4992523;28;20046;-70
2022/07/01 10:20:12;;;;;;;7.03;3.67;;;;;;;22.66;53.54;99996.50;4991972;28;20062;-72
2022/07/01 10:22:40;;;;;;;5.60;3.47;;;;;;;22.63;54.37;99994.97;4975421;28;20386;-71
2022/07/01 10:25:29;;;;;;;7.70;4.00;;;;;;;22.53;53.71;99996.88;4992018;28;20039;-72
2022/07/01 10:28:17;;;;;;;4.93;3.80;;;;;;;22.49;53.68;99984.78;4992295;28;20058;-66
2022/07/01 10:30:55;;;;;;;4.72;3.13;;;;;;;22.46;53.18;99983.28;4992394;28;20066;-69
2022/07/01 10:33:32;;;;;;;4.60;3.17;;;;;;;22.44;53.75;99985.28;4974777;28;20491;-67
2022/07/01 10:36:14;;;;;;;6.05;2.90;;;;;;;22.41;54.52;99993.66;4974863;28;20054;-69
2022/07/01 10:39:06;;;;;;;6.60;3.70;;;;;;;22.41;53.84;100000.84;4974639;28;20442;-71
2022/07/01 10:41:35;;;;;;;4.80;3.08;;;;;;;22.47;55.35;99995.66;4978627;28;20400;-67
2022/07/01 10:44:11;;;;;;;3.30;2.85;;;;;;;22.50;55.05;99997.22;4974632;28;20487;-74
2022/07/01 10:47:06;;;;;;;4.45;2.90;;;;;;;22.55;54.07;100002.13;4992019;28;20430;-65
2022/07/01 10:49:35;;;;;;;5.30;2.80;;;;;;;22.60;51.19;100013.22;4991905;28;20047;-67
2022/07/01 10:52:07;;;;;;;3.33;2.15;;;;;;;22.63;51.43;100004.84;4991754;28;20065;-68
2022/07/01 10:54:38;;;;;;;4.40;2.00;;;;;;;22.65;53.87;100001.00;4991997;28;20050;-68
2022/07/01 10:59:59;;;;;;;3.15;1.95;;;;;;;22.64;52.02;100001.16;4991492;28;20081;-63
2022/07/01 11:02:28;;;;;;;3.15;2.10;;;;;;;22.73;53.22;99996.69;4991652;28;20061;-64
2022/07/01 11:05:05;;;;;;;3.80;1.80;;;;;;;22.76;52.25;99999.88;4991185;28;20069;-65
2022/07/01 11:07:33;;;;;;;3.55;1.52;;;;;;;22.87;54.21;100016.69;4974155;28;20549;-65
2022/07/01 11:10:02;;;;;;;3.40;1.80;;;;;;;22.93;53.44;100009.81;4991872;28;20077;-64
2022/07/01 11:12:30;;;;;;;2.72;2.00;;;;;;;22.99;52.78;100018.06;4974157;28;20042;-66
2022/07/01 11:14:59;;;;;;;3.90;2.28;;;;;;;23.07;52.83;100024.47;4974484;28;20054;-64
2022/07/01 11:17:26;;;;;;;2.85;2.25;;;;;;;23.14;52.68;100028.19;4991303;28;20061;-66
2022/07/01 11:19:57;;;;;;;3.05;2.13;;;;;;;23.29;52.72;100033.78;4991216;28;20077;-63
2022/07/01 11:22:28;;;;;;;3.00;2.28;;;;;;;23.47;52.11;100027.47;4991270;28;20438;-65
2022/07/01 11:24:58;;;;;;;1.92;1.83;;;;;;;23.74;54.17;100034.34;4974394;28;20050;-64
2022/07/01 11:27:25;;;;;;;3.90;2.22;;;;;;;24.05;54.46;100036.38;4973911;28;20046;-65
2022/07/01 11:29:54;;;;;;;5.72;2.00;;;;;;;24.40;53.58;100036.19;4991033;28;20042;-67
2022/07/01 11:32:49;;;;;;;3.10;2.50;;;;;;;24.81;53.02;100019.06;4974059;28;20046;-63
2022/07/01 11:41:02;;;;;;;2.90;2.25;;;;;;;25.99;51.14;99987.66;4991329;28;20054;-62
2022/07/01 11:43:36;;;;;;;3.88;2.58;;;;;;;26.34;50.79;99989.84;4974013;28;20058;-63
2022/07/01 11:46:04;;;;;;;4.03;2.33;;;;;;;26.71;51.00;99979.13;4991342;28;20072;-65
2022/07/01 11:48:32;;;;;;;2.83;2.13;;;;;;;26.99;48.88;99990.09;4991035;28;20050;-62
2022/07/01 11:51:00;;;;;;;5.32;2.42;;;;;;;27.17;48.64;99997.78;4991002;28;20061;-66